createdAt,value
2022-11-08T00:02:24.498Z,15.77
2022-11-08T00:04:51.745Z,15.20
2022-11-08T00:07:37.502Z,15.23
2022-11-08T00:10:23.217Z,13.95
2022-11-08T00:13:08.900Z,14.10
2022-11-08T00:15:39.016Z,14.48
2022-11-08T00:18:07.716Z,15.48
2022-11-08T00:20:35.192Z,15.82
2022-11-08T00:23:02.378Z,14.20
2022-11-08T00:25:29.389Z,13.95
2022-11-08T00:27:57.498Z,14.98
2022-11-08T00:30:24.540Z,15.50
2022-11-08T00:32:51.844Z,14.45
2022-11-08T00:35:18.860Z,13.68
2022-11-08T00:37:45.919Z,14.55
2022-11-08T00:40:13.152Z,14.68
2022-11-08T00:42:40.301Z,14.52
2022-11-08T00:45:07.749Z,14.82
2022-11-08T00:47:35.086Z,15.77
2022-11-08T00:50:02.189Z,15.18
2022-11-08T00:52:30.923Z,15.75
2022-11-08T00:54:58.280Z,15.63
2022-11-08T00:57:46.898Z,17.08
2022-11-08T01:00:13.164Z,16.13
2022-11-08T01:02:40.399Z,16.25
2022-11-08T01:05:07.853Z,16.60
2022-11-08T01:07:34.976Z,15.73
2022-11-08T01:10:02.240Z,15.95
2022-11-08T01:12:30.646Z,16.75
2022-11-08T01:14:57.905Z,16.83
2022-11-08T01:17:24.996Z,17.55
2022-11-08T01:19:52.054Z,17.17
2022-11-08T01:22:19.157Z,16.20
2022-11-08T01:24:46.187Z,17.00
2022-11-08T01:27:13.323Z,16.58
2022-11-08T01:29:40.315Z,17.17
2022-11-08T01:32:07.337Z,15.05
2022-11-08T01:34:34.570Z,16.92
2022-11-08T01:37:01.713Z,14.95
2022-11-08T01:39:33.072Z,15.00
2022-11-08T01:42:00.208Z,15.75
2022-11-08T01:44:27.382Z,15.60
2022-11-08T01:46:54.761Z,14.50
2022-11-08T01:49:37.529Z,15.05
2022-11-08T01:52:23.193Z,15.35
2022-11-08T01:55:23.363Z,15.43
2022-11-08T01:57:54.553Z,15.68
2022-11-08T02:00:22.329Z,14.77
2022-11-08T02:02:54.913Z,15.98
2022-11-08T02:05:26.353Z,15.77
2022-11-08T02:08:08.817Z,15.48
2022-11-08T02:10:42.116Z,15.55
2022-11-08T02:13:15.088Z,16.13
2022-11-08T02:15:43.638Z,14.85
2022-11-08T02:18:11.816Z,17.17
2022-11-08T02:20:44.260Z,16.60
2022-11-08T02:23:32.524Z,15.82
2022-11-08T02:25:59.527Z,17.27
2022-11-08T02:28:26.696Z,14.77
2022-11-08T02:30:54.774Z,15.27
2022-11-08T02:33:23.442Z,15.32
2022-11-08T02:35:55.078Z,15.38
2022-11-08T02:38:25.439Z,16.65
2022-11-08T02:40:54.696Z,17.63
2022-11-08T02:43:23.254Z,14.93
2022-11-08T02:45:51.725Z,16.02
2022-11-08T02:48:20.450Z,15.85
2022-11-08T02:50:47.919Z,16.35
2022-11-08T02:53:15.786Z,17.52
2022-11-08T02:55:42.986Z,17.52
2022-11-08T02:58:11.375Z,18.20
2022-11-08T03:00:39.041Z,17.25
2022-11-08T03:03:06.340Z,18.95
2022-11-08T03:05:33.805Z,16.48
2022-11-08T03:08:00.874Z,16.60
2022-11-08T03:10:29.276Z,17.00
2022-11-08T03:12:57.496Z,17.48
2022-11-08T03:15:25.449Z,17.02
2022-11-08T03:17:52.474Z,16.42
2022-11-08T03:20:19.673Z,15.18
2022-11-08T03:22:47.585Z,16.77
2022-11-08T03:25:14.549Z,16.38
2022-11-08T03:27:41.667Z,16.73
2022-11-08T03:30:08.904Z,16.90
2022-11-08T03:32:35.915Z,15.93
2022-11-08T03:35:02.892Z,16.95
2022-11-08T03:37:30.747Z,17.58
2022-11-08T03:39:57.839Z,17.17
2022-11-08T03:42:24.907Z,17.63
2022-11-08T03:44:51.943Z,17.13
2022-11-08T03:47:18.947Z,15.40
2022-11-08T03:49:46.038Z,16.77
2022-11-08T03:52:13.175Z,13.98
2022-11-08T03:54:40.215Z,16.40
2022-11-08T03:57:07.209Z,15.57
2022-11-08T03:59:34.263Z,16.83
2022-11-08T04:02:01.460Z,16.13
2022-11-08T04:04:28.485Z,16.85
2022-11-08T04:06:55.472Z,15.65
2022-11-08T04:09:22.505Z,15.77
2022-11-08T04:12:07.974Z,16.10
2022-11-08T04:14:53.605Z,16.70
2022-11-08T04:17:40.515Z,14.02
2022-11-08T04:20:27.904Z,15.23
2022-11-08T04:22:54.919Z,14.65
2022-11-08T04:25:22.068Z,14.23
2022-11-08T04:27:50.029Z,15.23
2022-11-08T04:30:17.151Z,14.13
2022-11-08T04:32:44.280Z,14.43
2022-11-08T04:35:11.139Z,15.40
2022-11-08T04:37:38.143Z,14.57
2022-11-08T04:40:05.714Z,13.65
2022-11-08T04:42:32.670Z,15.65
2022-11-08T04:44:59.585Z,14.32
2022-11-08T04:47:28.133Z,13.70
2022-11-08T04:49:55.231Z,14.45
2022-11-08T04:52:22.348Z,13.07
2022-11-08T04:54:49.571Z,14.32
2022-11-08T04:57:16.736Z,13.32
2022-11-08T04:59:43.834Z,14.55
2022-11-08T05:02:10.960Z,14.48
2022-11-08T05:04:38.224Z,13.05
2022-11-08T05:07:05.367Z,13.05
2022-11-08T05:09:32.494Z,13.48
2022-11-08T05:12:00.820Z,13.27
2022-11-08T05:14:27.906Z,10.95
2022-11-08T05:16:55.039Z,13.43
2022-11-08T05:19:48.227Z,13.68
2022-11-08T05:22:33.843Z,12.93
2022-11-08T05:25:01.029Z,12.18
2022-11-08T05:27:28.839Z,13.10
2022-11-08T05:29:55.795Z,12.80
2022-11-08T05:32:23.047Z,13.75
2022-11-08T05:34:50.110Z,13.05
2022-11-08T05:37:17.318Z,12.00
2022-11-08T05:39:44.339Z,12.20
2022-11-08T05:42:11.766Z,12.13
2022-11-08T05:44:38.894Z,11.77
2022-11-08T05:47:06.289Z,12.68
2022-11-08T05:49:33.587Z,12.90
2022-11-08T05:52:00.701Z,12.50
2022-11-08T05:54:27.722Z,12.90
2022-11-08T05:56:54.651Z,15.32
2022-11-08T05:59:21.580Z,14.98
2022-11-08T06:01:48.538Z,12.38
2022-11-08T06:04:15.690Z,11.45
2022-11-08T06:06:42.684Z,11.40
2022-11-08T06:09:09.587Z,11.95
2022-11-08T06:11:36.608Z,11.98
2022-11-08T06:14:03.593Z,12.10
2022-11-08T06:16:30.649Z,11.73
2022-11-08T06:18:57.594Z,11.10
2022-11-08T06:21:27.361Z,10.35
2022-11-08T06:23:55.047Z,11.50
2022-11-08T06:26:24.229Z,10.77
2022-11-08T06:28:51.382Z,11.50
2022-11-08T06:31:18.768Z,11.32
2022-11-08T06:33:45.998Z,11.40
2022-11-08T06:36:13.553Z,11.07
2022-11-08T06:38:43.964Z,10.95
2022-11-08T06:41:17.809Z,10.02
2022-11-08T06:43:44.815Z,9.82
2022-11-08T06:46:11.923Z,10.10
2022-11-08T06:48:38.967Z,9.80
2022-11-08T06:51:06.358Z,10.90
2022-11-08T06:53:33.426Z,9.88
2022-11-08T06:56:01.893Z,10.32
2022-11-08T06:58:29.624Z,9.80
2022-11-08T07:00:56.755Z,11.48
2022-11-08T07:03:24.007Z,10.20
2022-11-08T07:05:51.104Z,9.82
2022-11-08T07:08:23.339Z,11.32
2022-11-08T07:10:51.859Z,10.35
2022-11-08T07:13:19.609Z,11.15
2022-11-08T07:15:49.948Z,10.57
2022-11-08T07:18:19.168Z,10.80
2022-11-08T07:20:46.491Z,12.13
2022-11-08T07:23:14.056Z,11.55
2022-11-08T07:25:45.696Z,11.38
2022-11-08T07:28:16.887Z,12.05
2022-11-08T07:30:45.715Z,11.20
2022-11-08T07:33:13.911Z,11.15
2022-11-08T07:35:41.805Z,13.30
2022-11-08T07:38:08.866Z,12.55
2022-11-08T07:40:35.850Z,11.80
2022-11-08T07:43:11.870Z,12.18
2022-11-08T07:45:57.954Z,12.55
2022-11-08T07:48:25.945Z,12.85
2022-11-08T07:50:53.096Z,12.50
2022-11-08T07:53:20.740Z,11.15
2022-11-08T07:55:48.316Z,12.32
2022-11-08T07:58:16.406Z,12.25
2022-11-08T08:00:45.078Z,10.65
2022-11-08T08:03:14.081Z,12.23
2022-11-08T08:05:44.612Z,11.85
2022-11-08T08:08:13.450Z,13.32
2022-11-08T08:10:41.616Z,12.90
2022-11-08T08:13:09.042Z,13.10
2022-11-08T08:15:36.110Z,13.57
2022-11-08T08:18:05.007Z,13.68
2022-11-08T08:20:33.102Z,13.82
2022-11-08T08:23:00.934Z,12.85
2022-11-08T08:25:31.305Z,14.13
2022-11-08T08:28:01.171Z,12.27
2022-11-08T08:30:30.383Z,12.85
2022-11-08T08:35:58.159Z,12.20
2022-11-08T08:38:26.910Z,12.48
2022-11-08T08:40:53.908Z,13.70
2022-11-08T08:43:21.729Z,13.65
2022-11-08T08:45:49.215Z,14.15
2022-11-08T08:48:16.407Z,14.52
2022-11-08T08:50:43.726Z,15.70
2022-11-08T08:53:11.089Z,14.48
2022-11-08T08:55:39.859Z,15.35
2022-11-08T08:58:06.861Z,14.45
2022-11-08T09:03:21.911Z,10.98
2022-11-08T09:05:49.166Z,13.77
2022-11-08T09:08:16.280Z,11.43
2022-11-08T09:10:43.372Z,11.73
2022-11-08T09:13:10.689Z,11.73
2022-11-08T09:15:39.517Z,10.32
2022-11-08T09:18:07.051Z,10.90
2022-11-08T09:20:34.146Z,10.27
2022-11-08T09:23:05.167Z,11.10
2022-11-08T09:25:32.186Z,9.88
2022-11-08T09:27:59.241Z,9.88
2022-11-08T09:30:26.896Z,9.98
2022-11-08T09:33:00.704Z,9.85
2022-11-08T09:35:28.621Z,10.77
2022-11-08T09:37:56.018Z,9.80
2022-11-08T09:40:39.902Z,10.00
2022-11-08T09:43:46.490Z,9.30
2022-11-08T09:46:24.971Z,9.75
2022-11-08T09:48:53.860Z,9.13
2022-11-08T09:51:23.911Z,8.45
2022-11-08T09:54:00.024Z,10.40
2022-11-08T09:56:29.932Z,9.77
2022-11-08T09:59:18.349Z,9.55
2022-11-08T10:01:45.465Z,9.80
2022-11-08T10:04:16.408Z,9.02
2022-11-08T10:07:03.776Z,10.07
2022-11-08T10:10:28.306Z,9.38
2022-11-08T10:13:14.975Z,9.35
2022-11-08T10:15:58.988Z,9.20
2022-11-08T10:18:59.366Z,9.90
2022-11-08T10:21:48.329Z,9.68
2022-11-08T10:24:25.839Z,9.98
2022-11-08T10:26:55.362Z,9.75
2022-11-08T10:29:27.884Z,9.27
2022-11-08T10:32:24.835Z,9.23
2022-11-08T10:35:01.242Z,8.98
2022-11-08T10:37:33.385Z,9.80
2022-11-08T10:40:46.554Z,8.13
2022-11-08T10:43:26.684Z,7.00
2022-11-08T10:45:53.875Z,8.20
2022-11-08T10:48:20.952Z,7.85
2022-11-08T10:50:52.865Z,7.30
2022-11-08T10:53:27.251Z,7.03
2022-11-08T10:56:05.810Z,8.07
2022-11-08T10:58:41.499Z,7.85
2022-11-08T11:01:20.347Z,7.55
2022-11-08T11:03:49.392Z,7.40
2022-11-08T11:06:33.134Z,6.90
2022-11-08T11:09:03.817Z,6.20
2022-11-08T11:11:30.918Z,7.32
2022-11-08T11:14:21.986Z,7.75
2022-11-08T11:17:00.796Z,7.00
2022-11-08T11:19:29.379Z,6.30
2022-11-08T11:22:15.258Z,6.63
2022-11-08T11:24:52.208Z,6.75
2022-11-08T11:27:30.297Z,6.40
2022-11-08T11:30:23.117Z,6.22
2022-11-08T11:33:27.046Z,5.97
2022-11-08T11:36:19.090Z,6.22
2022-11-08T11:38:49.005Z,5.78
2022-11-08T11:41:22.372Z,6.22
2022-11-08T11:44:17.378Z,6.68
2022-11-08T11:47:03.133Z,6.68
2022-11-08T11:49:31.822Z,6.28
2022-11-08T11:51:59.098Z,6.35
2022-11-08T11:54:32.669Z,5.32
2022-11-08T11:57:24.278Z,6.55
2022-11-08T11:59:57.406Z,6.05
2022-11-08T12:02:42.658Z,6.03
2022-11-08T12:05:47.169Z,5.85
2022-11-08T12:08:23.893Z,5.97
2022-11-08T12:11:06.731Z,5.97
2022-11-08T12:14:07.457Z,5.25
2022-11-08T12:16:37.444Z,5.68
2022-11-08T12:19:29.553Z,5.65
2022-11-08T12:22:02.828Z,5.30
2022-11-08T12:24:48.229Z,5.30
2022-11-08T12:27:36.813Z,5.82
2022-11-08T12:30:36.018Z,6.28
2022-11-08T12:33:23.220Z,5.88
2022-11-08T12:36:14.529Z,5.53
2022-11-08T12:39:07.772Z,5.30
2022-11-08T12:41:50.211Z,5.50
2022-11-08T12:44:35.379Z,5.15
2022-11-08T12:47:20.676Z,4.95
2022-11-08T12:49:57.132Z,5.15
2022-11-08T12:52:55.367Z,4.95
2022-11-08T12:57:58.871Z,4.68
2022-11-08T13:00:28.482Z,5.50
2022-11-08T13:03:43.106Z,5.10
2022-11-08T13:06:25.406Z,4.80
2022-11-08T13:12:41.366Z,5.53
2022-11-08T13:15:25.323Z,5.72
2022-11-08T13:18:07.622Z,5.03
2022-11-08T13:20:46.499Z,4.68
2022-11-08T13:23:33.227Z,4.60
2022-11-08T13:26:23.393Z,4.93
2022-11-08T13:28:51.596Z,4.72
2022-11-08T13:31:28.063Z,4.53
2022-11-08T13:34:23.732Z,4.85
2022-11-08T13:37:22.781Z,4.65
2022-11-08T13:53:58.493Z,4.35
2022-11-08T13:56:40.005Z,4.45
2022-11-08T13:59:32.214Z,4.30
2022-11-08T14:01:59.697Z,4.82
2022-11-08T14:04:40.943Z,4.20
2022-11-08T14:07:11.022Z,4.93
2022-11-08T14:09:49.116Z,4.82
2022-11-08T14:12:31.319Z,5.00
2022-11-08T14:15:07.453Z,4.88
2022-11-08T14:17:44.909Z,4.30
2022-11-08T14:20:39.745Z,4.65
2022-11-08T14:23:33.208Z,4.38
2022-11-08T14:26:02.168Z,4.45
2022-11-08T14:28:31.384Z,4.25
2022-11-08T14:30:59.897Z,4.78
2022-11-08T14:33:29.460Z,3.92
2022-11-08T14:35:56.518Z,5.07
2022-11-08T14:38:25.733Z,5.18
2022-11-08T14:41:00.030Z,4.47
2022-11-08T14:43:27.880Z,4.60
2022-11-08T14:45:58.311Z,4.90
2022-11-08T14:48:29.769Z,5.05
2022-11-08T14:51:01.739Z,5.00
2022-11-08T14:53:34.578Z,5.18
2022-11-08T14:56:16.816Z,5.13
2022-11-08T14:58:44.581Z,5.20
2022-11-08T15:01:13.929Z,4.97
2022-11-08T15:03:47.289Z,5.32
2022-11-08T15:06:14.644Z,5.38
2022-11-08T15:08:53.298Z,5.50
2022-11-08T15:11:32.064Z,5.60
2022-11-08T15:14:03.439Z,5.28
2022-11-08T15:16:45.413Z,5.07
2022-11-08T15:19:29.928Z,5.65
2022-11-08T15:22:01.643Z,5.68
2022-11-08T15:24:39.919Z,6.05
2022-11-08T15:27:13.492Z,5.35
2022-11-08T15:29:59.641Z,5.53
2022-11-08T15:32:27.627Z,5.38
2022-11-08T15:34:58.714Z,5.55
2022-11-08T15:37:35.642Z,5.45
2022-11-08T15:40:14.455Z,5.70
2022-11-08T15:42:45.639Z,5.38
2022-11-08T15:45:12.807Z,5.47
2022-11-08T15:47:42.844Z,5.97
2022-11-08T15:50:14.163Z,6.68
2022-11-08T15:52:42.215Z,6.70
2022-11-08T15:55:14.003Z,6.43
2022-11-08T15:57:43.406Z,5.97
2022-11-08T16:00:15.751Z,6.00
2022-11-08T16:02:43.660Z,6.53
2022-11-08T16:05:21.867Z,6.63
2022-11-08T16:07:50.583Z,5.90
2022-11-08T16:10:39.374Z,6.55
2022-11-08T16:13:07.678Z,7.00
2022-11-08T16:15:35.760Z,6.82
2022-11-08T16:18:03.730Z,6.55
2022-11-08T16:20:33.716Z,6.43
2022-11-08T16:23:02.921Z,6.35
2022-11-08T16:25:35.376Z,7.05
2022-11-08T16:28:09.118Z,7.10
2022-11-08T16:30:36.385Z,7.13
2022-11-08T16:33:29.044Z,6.63
2022-11-08T16:35:58.187Z,6.88
2022-11-08T16:38:29.295Z,6.75
2022-11-08T16:40:56.431Z,6.82
2022-11-08T16:43:23.397Z,7.47
2022-11-08T16:46:04.866Z,7.43
2022-11-08T16:48:32.368Z,7.45
2022-11-08T16:51:01.860Z,7.22
2022-11-08T16:53:32.607Z,7.35
2022-11-08T16:55:59.759Z,7.70
2022-11-08T16:58:28.187Z,7.30
2022-11-08T17:00:56.640Z,7.40
2022-11-08T17:03:25.835Z,6.78
2022-11-08T17:05:54.246Z,7.18
2022-11-08T17:08:22.071Z,7.53
2022-11-08T17:10:49.227Z,7.80
2022-11-08T17:13:18.564Z,6.72
2022-11-08T17:15:47.222Z,6.65
2022-11-08T17:18:17.010Z,7.22
2022-11-08T17:20:44.546Z,7.10
2022-11-08T17:23:11.887Z,7.50
2022-11-08T17:25:40.468Z,7.85
2022-11-08T17:28:08.598Z,7.80
2022-11-08T17:30:37.136Z,8.13
2022-11-08T17:33:04.402Z,7.68
2022-11-08T17:35:31.469Z,7.85
2022-11-08T17:37:58.494Z,7.50
2022-11-08T17:40:25.510Z,7.70
2022-11-08T17:42:52.911Z,7.97
2022-11-08T17:45:20.410Z,7.50
2022-11-08T17:47:48.860Z,7.18
2022-11-08T17:50:16.069Z,8.15
2022-11-08T17:52:43.077Z,6.93
2022-11-08T17:55:10.308Z,7.28
2022-11-08T17:57:37.408Z,8.50
2022-11-08T18:00:08.585Z,6.85
2022-11-08T18:02:39.878Z,7.57
2022-11-08T18:05:07.395Z,8.63
2022-11-08T18:07:34.432Z,7.43
2022-11-08T18:10:03.945Z,8.30
2022-11-08T18:12:33.012Z,8.27
2022-11-08T18:15:01.497Z,8.05
2022-11-08T18:17:30.242Z,8.88
2022-11-08T18:19:57.427Z,8.48
2022-11-08T18:22:24.781Z,9.27
2022-11-08T18:24:51.942Z,9.63
2022-11-08T18:27:19.075Z,8.57
2022-11-08T18:29:46.445Z,9.57
2022-11-08T18:32:13.491Z,9.48
2022-11-08T18:34:40.622Z,9.70
2022-11-08T18:37:07.853Z,11.30
2022-11-08T18:39:36.169Z,10.18
2022-11-08T18:42:03.307Z,10.20
2022-11-08T18:44:30.720Z,9.73
2022-11-08T18:46:58.426Z,9.57
2022-11-08T18:49:27.966Z,11.40
2022-11-08T18:51:57.714Z,11.23
2022-11-08T18:54:24.922Z,11.35
2022-11-08T18:56:52.001Z,11.63
2022-11-08T18:59:20.842Z,11.07
2022-11-08T19:01:48.168Z,11.90
2022-11-08T19:04:15.571Z,12.38
2022-11-08T19:06:42.612Z,12.13
2022-11-08T19:09:09.665Z,12.57
2022-11-08T19:11:37.211Z,12.75
2022-11-08T19:14:04.226Z,12.93
2022-11-08T19:16:32.395Z,11.50
2022-11-08T19:18:59.888Z,11.93
2022-11-08T19:21:28.164Z,12.10
2022-11-08T19:23:59.422Z,12.85
2022-11-08T19:26:28.909Z,12.45
2022-11-08T19:28:57.379Z,13.35
2022-11-08T19:31:25.524Z,12.13
2022-11-08T19:33:53.929Z,13.63
2022-11-08T19:36:23.482Z,12.27
2022-11-08T19:38:52.277Z,13.18
2022-11-08T19:41:21.414Z,11.95
2022-11-08T19:43:49.028Z,12.60
2022-11-08T19:46:18.589Z,14.95
2022-11-08T19:48:47.106Z,12.75
2022-11-08T19:51:22.223Z,13.00
2022-11-08T19:53:50.126Z,12.13
2022-11-08T19:56:19.421Z,13.30
2022-11-08T19:58:47.125Z,13.90
2022-11-08T20:01:16.528Z,13.43
2022-11-08T20:03:44.468Z,14.20
2022-11-08T20:06:12.248Z,12.48
2022-11-08T20:08:39.557Z,11.80
2022-11-08T20:11:33.203Z,14.15
2022-11-08T20:14:01.169Z,13.32
2022-11-08T20:16:32.615Z,13.20
2022-11-08T20:19:14.362Z,12.88
2022-11-08T20:21:45.964Z,13.23
2022-11-08T20:24:14.522Z,12.73
2022-11-08T20:26:42.074Z,13.18
2022-11-08T20:29:09.992Z,12.32
2022-11-08T20:31:38.775Z,12.00
2022-11-08T20:34:09.757Z,12.20
2022-11-08T20:36:37.872Z,13.48
2022-11-08T20:39:07.770Z,12.57
2022-11-08T20:41:37.716Z,13.13
2022-11-08T20:44:06.830Z,12.82
2022-11-08T20:46:36.030Z,14.00
2022-11-08T20:49:04.627Z,13.38
2022-11-08T20:51:32.453Z,14.75
2022-11-08T20:54:00.705Z,15.13
2022-11-08T20:56:29.037Z,14.38
2022-11-08T20:58:56.596Z,13.30
2022-11-08T21:01:27.408Z,13.02
2022-11-08T21:03:55.290Z,13.82
2022-11-08T21:06:24.207Z,12.93
2022-11-08T21:09:03.877Z,12.80
2022-11-08T21:11:35.629Z,13.93
2022-11-08T21:14:04.250Z,13.55
2022-11-08T21:16:42.289Z,13.48
2022-11-08T21:19:14.262Z,13.32
2022-11-08T21:21:41.736Z,14.73
2022-11-08T21:24:08.815Z,13.82
2022-11-08T21:26:36.876Z,14.32
2022-11-08T21:29:05.686Z,13.88
2022-11-08T21:31:33.601Z,12.38
2022-11-08T21:34:00.638Z,13.80
2022-11-08T21:36:29.311Z,13.13
2022-11-08T21:38:56.524Z,14.15
2022-11-08T21:41:23.758Z,13.55
2022-11-08T21:43:50.917Z,13.80
2022-11-08T21:46:24.615Z,13.50
2022-11-08T21:49:00.218Z,12.88
2022-11-08T21:51:29.556Z,13.40
2022-11-08T21:53:58.537Z,14.10
2022-11-08T21:56:30.148Z,14.15
2022-11-08T21:58:57.826Z,13.05
2022-11-08T22:01:29.920Z,13.82
2022-11-08T22:03:58.975Z,14.98
2022-11-08T22:06:26.500Z,13.98
2022-11-08T22:08:53.825Z,13.98
2022-11-08T22:11:20.941Z,13.30
2022-11-08T22:13:48.020Z,14.10
2022-11-08T22:16:15.023Z,12.57
2022-11-08T22:19:03.491Z,12.95
2022-11-08T22:21:38.519Z,13.60
2022-11-08T22:24:22.671Z,14.27
2022-11-08T22:26:51.314Z,13.57
2022-11-08T22:29:19.033Z,13.93
2022-11-08T22:31:46.288Z,15.05
2022-11-08T22:34:13.751Z,14.18
2022-11-08T22:36:45.267Z,14.30
2022-11-08T22:39:23.474Z,14.30
2022-11-08T22:41:52.885Z,15.15
2022-11-08T22:44:20.406Z,15.00
2022-11-08T22:46:48.456Z,14.38
2022-11-08T22:49:16.104Z,14.70
2022-11-08T22:51:43.796Z,14.35
2022-11-08T22:54:10.923Z,13.85
2022-11-08T22:56:38.479Z,14.55
2022-11-08T22:59:05.628Z,14.52
2022-11-08T23:01:33.514Z,15.18
2022-11-08T23:04:00.928Z,15.05
2022-11-08T23:06:28.003Z,14.48
2022-11-08T23:08:55.062Z,14.20
2022-11-08T23:11:40.503Z,12.90
2022-11-08T23:14:32.292Z,15.45
2022-11-08T23:17:03.077Z,15.40
2022-11-08T23:19:48.890Z,15.98
2022-11-08T23:22:35.203Z,15.50
2022-11-08T23:25:02.497Z,15.05
2022-11-08T23:27:49.801Z,15.10
2022-11-08T23:30:36.991Z,14.88
2022-11-08T23:33:06.762Z,15.80
2022-11-08T23:35:33.952Z,13.77
2022-11-08T23:38:01.038Z,15.35
2022-11-08T23:40:46.616Z,16.13
2022-11-08T23:43:31.781Z,14.93
2022-11-08T23:46:07.941Z,15.40
2022-11-08T23:48:36.766Z,14.53
2022-11-08T23:51:04.599Z,15.35
2022-11-08T23:53:34.361Z,14.95
2022-11-08T23:56:01.389Z,16.33
2022-11-08T23:58:28.329Z,14.32
